Coffee City, Texas
Current Conditions -  °F | °C
As of 10:15 PM on Wednesday 22 Oct 2014 (Local Time) from KPSN Reporting Station
Clear Clear  
Wind Chill: 66°   Ceiling: Unl
Heat Index: 66°   Visibility: 10mi
Dew Point: 57°   Wind: 5mph
Humidity: 72%   Direction: 60°ENE
Pressure: 30.13"   Gusts: NA
Location:  32.0056°N, 95.5543°W
Report Text: KPSN 230315Z AUTO 06004KT 10SM CLR 18/13 A3013 RMK AO2 T01890138
Loading
Personal Weather Stations






























Interactive Weather Map
Tropical Storm Tracking
New forecast layout! Learn more

10-Day Weather Forecast

Advertisements
Track Severe Weather on mobile